Time;durP1;ratioP1;P1;durP2;ratioP2;P2;SDS_P1;SDS_P2;PMS_P1;PMS_P2;Temp;Humidity;BMP_temperature;BMP_pressure;BME280_temperature;BME280_humidity;BME280_pressure;Samples;Min_cycle;Max_cycle;Signal;HPM_P1;HPM_P2
2022/10/12 00:00:44;;;;;;;8.13;6.63;;;;;;;;;;5019647;28;20026;-64
2022/10/12 00:03:11;;;;;;;8.10;7.45;;;;;;;;;;5019701;28;20041;-64
2022/10/12 00:05:36;;;;;;;8.05;7.38;;;;;;;;;;5021217;28;20113;-64
2022/10/12 00:08:02;;;;;;;6.75;6.22;;;;;;;;;;5019462;28;20240;-64
2022/10/12 00:10:27;;;;;;;6.38;5.95;;;;;;;;;;5020678;28;20045;-64
2022/10/12 00:12:53;;;;;;;7.10;6.60;;;;;;;;;;5019592;28;20109;-64
2022/10/12 00:15:18;;;;;;;7.03;6.45;;;;;;;;;;5021316;28;20026;-64
2022/10/12 00:17:43;;;;;;;6.43;6.03;;;;;;;;;;5017181;28;20026;-64
2022/10/12 00:20:09;;;;;;;6.65;6.15;;;;;;;;;;5018051;28;20040;-64
2022/10/12 00:22:35;;;;;;;6.35;5.90;;;;;;;;;;5020616;28;20335;-64
2022/10/12 00:25:00;;;;;;;7.40;6.80;;;;;;;;;;5018800;28;20033;-64
2022/10/12 00:27:25;;;;;;;6.80;6.30;;;;;;;;;;5021852;28;20030;-64
2022/10/12 00:29:51;;;;;;;8.43;7.82;;;;;;;;;;5020874;28;20032;-64
2022/10/12 00:32:17;;;;;;;7.28;6.68;;;;;;;;;;5019090;28;20060;-64
2022/10/12 00:34:43;;;;;;;7.00;6.50;;;;;;;;;;5019791;28;20048;-64
2022/10/12 00:37:08;;;;;;;6.78;6.28;;;;;;;;;;5015732;28;20038;-65
2022/10/12 00:39:33;;;;;;;7.13;6.63;;;;;;;;;;5016642;28;20025;-64
2022/10/12 00:41:59;;;;;;;7.28;6.78;;;;;;;;;;5018884;28;20033;-64
2022/10/12 00:44:46;;;;;;;7.18;6.65;;;;;;;;;;5037624;28;20733;-64
2022/10/12 00:47:29;;;;;;;7.30;6.80;;;;;;;;;;5020355;28;20084;-64
2022/10/12 00:50:01;;;;;;;9.32;7.25;;;;;;;;;;5020698;28;20033;-64
2022/10/12 00:52:33;;;;;;;7.53;6.90;;;;;;;;;;5025033;28;20048;-64
2022/10/12 00:55:00;;;;;;;6.78;6.28;;;;;;;;;;5016308;28;20041;-63
2022/10/12 00:57:26;;;;;;;6.70;6.20;;;;;;;;;;5018453;28;20029;-64
2022/10/12 00:59:56;;;;;;;7.47;6.97;;;;;;;;;;5015692;28;20067;-64
2022/10/12 01:02:24;;;;;;;7.43;6.85;;;;;;;;;;5019036;28;20085;-64
2022/10/12 01:04:49;;;;;;;6.85;6.35;;;;;;;;;;5033825;28;20459;-64
2022/10/12 01:07:15;;;;;;;8.13;7.50;;;;;;;;;;5018123;28;20044;-64
2022/10/12 01:09:40;;;;;;;8.52;7.88;;;;;;;;;;5016342;28;20091;-63
2022/10/12 01:12:06;;;;;;;9.32;8.70;;;;;;;;;;5017843;28;20104;-64
2022/10/12 01:14:32;;;;;;;8.15;7.65;;;;;;;;;;5016439;28;20514;-64
2022/10/12 01:17:27;;;;;;;8.85;8.25;;;;;;;;;;5019413;28;20160;-64
2022/10/12 01:20:01;;;;;;;8.60;8.07;;;;;;;;;;4980075;28;20038;-64
2022/10/12 01:22:32;;;;;;;7.93;7.43;;;;;;;;;;5019052;28;20041;-64
2022/10/12 01:25:28;;;;;;;8.15;7.57;;;;;;;;;;5017525;28;20033;-64
2022/10/12 01:28:22;;;;;;;7.55;7.05;;;;;;;;;;5015683;28;20065;-64
2022/10/12 01:30:55;;;;;;;8.10;7.45;;;;;;;;;;5019142;28;20030;-64
2022/10/12 01:33:31;;;;;;;7.55;7.05;;;;;;;;;;5046663;28;20042;-64
2022/10/12 01:36:23;;;;;;;8.75;8.15;;;;;;;;;;5017226;28;20108;-64
2022/10/12 01:39:09;;;;;;;7.80;7.30;;;;;;;;;;5006919;28;20115;-64
2022/10/12 01:41:41;;;;;;;9.20;8.50;;;;;;;;;;5017222;28;20045;-64
2022/10/12 01:44:07;;;;;;;7.50;7.00;;;;;;;;;;5018665;28;20025;-64
2022/10/12 01:46:32;;;;;;;7.22;6.72;;;;;;;;;;5019721;28;20742;-64
2022/10/12 01:49:00;;;;;;;7.90;7.30;;;;;;;;;;5018228;28;20621;-64
2022/10/12 01:51:42;;;;;;;6.65;6.15;;;;;;;;;;5017716;28;20030;-64
2022/10/12 01:54:16;;;;;;;7.18;6.68;;;;;;;;;;5016664;28;20079;-67
2022/10/12 01:57:04;;;;;;;8.30;7.47;;;;;;;;;;5020799;28;20083;-64
2022/10/12 01:59:53;;;;;;;7.05;6.55;;;;;;;;;;5015873;28;20057;-64
2022/10/12 02:02:39;;;;;;;7.88;7.30;;;;;;;;;;5017135;28;20939;-64
2022/10/12 02:05:25;;;;;;;7.65;7.07;;;;;;;;;;5004943;28;20388;-64
2022/10/12 02:08:31;;;;;;;8.40;6.93;;;;;;;;;;5015480;28;20062;-64
2022/10/12 02:11:11;;;;;;;7.43;6.93;;;;;;;;;;5014776;28;20048;-64
2022/10/12 02:14:08;;;;;;;7.68;7.18;;;;;;;;;;5019913;28;20021;-64
2022/10/12 02:16:38;;;;;;;7.38;6.88;;;;;;;;;;5017096;28;20060;-64
2022/10/12 02:19:06;;;;;;;8.13;7.53;;;;;;;;;;5019143;28;20487;-64
2022/10/12 02:21:33;;;;;;;7.50;7.00;;;;;;;;;;5019707;28;20029;-64
2022/10/12 02:24:03;;;;;;;7.65;7.05;;;;;;;;;;5017874;28;20037;-64
2022/10/12 02:26:31;;;;;;;8.45;7.13;;;;;;;;;;5016227;28;20316;-64
2022/10/12 02:29:00;;;;;;;9.48;8.07;;;;;;;;;;5016990;28;20017;-64
2022/10/12 02:31:55;;;;;;;7.10;6.55;;;;;;;;;;5019628;28;20033;-64
2022/10/12 02:34:29;;;;;;;7.20;6.70;;;;;;;;;;5016373;28;20046;-64
2022/10/12 02:37:08;;;;;;;6.43;5.93;;;;;;;;;;5019141;28;20047;-64
2022/10/12 02:39:53;;;;;;;6.63;6.13;;;;;;;;;;5016152;28;20050;-64
2022/10/12 02:42:25;;;;;;;7.60;7.00;;;;;;;;;;5017941;28;20042;-65
2022/10/12 02:44:52;;;;;;;7.78;7.07;;;;;;;;;;5019245;28;20021;-64
2022/10/12 02:47:21;;;;;;;6.82;6.32;;;;;;;;;;5018929;28;20683;-64
2022/10/12 02:49:47;;;;;;;7.65;7.05;;;;;;;;;;5021201;28;20040;-64
2022/10/12 02:52:13;;;;;;;6.05;5.65;;;;;;;;;;5016700;28;20840;-64
2022/10/12 02:54:39;;;;;;;7.38;6.88;;;;;;;;;;5017086;28;20030;-64
2022/10/12 02:57:04;;;;;;;7.25;6.75;;;;;;;;;;5015155;28;20037;-64
2022/10/12 02:59:30;;;;;;;5.95;5.55;;;;;;;;;;5016172;28;20052;-64
2022/10/12 03:01:55;;;;;;;7.97;7.45;;;;;;;;;;5016211;28;20344;-64
2022/10/12 03:04:20;;;;;;;7.45;6.95;;;;;;;;;;5021713;28;20046;-64
2022/10/12 03:06:46;;;;;;;7.07;6.47;;;;;;;;;;5017168;28;20095;-64
2022/10/12 03:09:11;;;;;;;6.80;6.30;;;;;;;;;;5015075;28;20081;-64
2022/10/12 03:11:36;;;;;;;7.05;6.55;;;;;;;;;;5014853;28;20034;-65
2022/10/12 03:14:02;;;;;;;6.70;6.25;;;;;;;;;;5018119;28;20029;-64
2022/10/12 03:16:28;;;;;;;8.05;7.35;;;;;;;;;;5016832;28;20029;-64
2022/10/12 03:18:53;;;;;;;6.43;6.03;;;;;;;;;;5017000;28;20120;-64
2022/10/12 03:21:19;;;;;;;6.78;6.28;;;;;;;;;;5020709;28;20041;-64
2022/10/12 03:23:44;;;;;;;7.00;6.50;;;;;;;;;;5018151;28;20961;-63
2022/10/12 03:26:09;;;;;;;6.95;6.45;;;;;;;;;;5014834;28;20049;-63
2022/10/12 03:28:35;;;;;;;8.00;7.40;;;;;;;;;;5019326;28;20040;-63
2022/10/12 03:31:00;;;;;;;8.90;6.93;;;;;;;;;;5017043;28;20025;-63
2022/10/12 03:33:26;;;;;;;7.35;6.75;;;;;;;;;;5017219;28;20040;-64
2022/10/12 03:35:51;;;;;;;6.38;5.85;;;;;;;;;;5016263;28;20475;-64
2022/10/12 03:38:17;;;;;;;8.75;7.93;;;;;;;;;;5017172;28;20061;-64
2022/10/12 03:40:44;;;;;;;7.75;7.15;;;;;;;;;;5017444;28;20091;-64
2022/10/12 03:43:10;;;;;;;6.10;5.70;;;;;;;;;;5016244;28;20501;-64
2022/10/12 03:45:35;;;;;;;7.53;7.03;;;;;;;;;;5014602;28;20049;-64
2022/10/12 03:48:01;;;;;;;6.65;6.18;;;;;;;;;;5017186;28;20064;-64
2022/10/12 03:50:27;;;;;;;7.28;6.50;;;;;;;;;;5020485;28;20033;-64
2022/10/12 03:52:52;;;;;;;7.22;6.72;;;;;;;;;;5017521;28;20048;-64
2022/10/12 03:55:18;;;;;;;7.45;6.95;;;;;;;;;;5017504;28;20037;-64
2022/10/12 03:57:44;;;;;;;6.68;6.18;;;;;;;;;;5017144;28;20026;-64
2022/10/12 04:00:10;;;;;;;8.05;7.35;;;;;;;;;;5017418;28;20439;-64
2022/10/12 04:02:36;;;;;;;6.63;6.18;;;;;;;;;;5012896;28;20030;-64
2022/10/12 04:05:02;;;;;;;6.95;6.45;;;;;;;;;;5016213;28;20040;-64
2022/10/12 04:07:27;;;;;;;6.57;6.07;;;;;;;;;;5018520;28;20030;-64
2022/10/12 04:09:52;;;;;;;6.40;5.95;;;;;;;;;;5014308;28;20060;-64
2022/10/12 04:12:18;;;;;;;10.52;6.53;;;;;;;;;;5017729;28;20049;-64
2022/10/12 04:14:43;;;;;;;6.10;5.70;;;;;;;;;;5015990;28;20148;-65
2022/10/12 04:17:08;;;;;;;7.68;7.15;;;;;;;;;;5014850;28;20052;-64
2022/10/12 04:19:34;;;;;;;6.60;6.10;;;;;;;;;;5017704;28;20459;-64
2022/10/12 04:21:59;;;;;;;6.40;6.00;;;;;;;;;;5020238;28;20056;-64
2022/10/12 04:24:24;;;;;;;6.75;6.25;;;;;;;;;;5013146;28;20529;-65
2022/10/12 04:26:50;;;;;;;7.22;6.72;;;;;;;;;;5016325;28;20040;-63
2022/10/12 04:29:15;;;;;;;7.18;6.60;;;;;;;;;;5014176;28;20022;-63
2022/10/12 04:31:41;;;;;;;7.68;7.07;;;;;;;;;;5019652;28;20506;-63
2022/10/12 04:34:08;;;;;;;7.03;6.43;;;;;;;;;;5022359;28;20524;-63
2022/10/12 04:36:34;;;;;;;8.70;6.57;;;;;;;;;;5021187;28;20030;-63
2022/10/12 04:39:00;;;;;;;6.85;6.30;;;;;;;;;;5021885;28;20044;-63
2022/10/12 04:41:25;;;;;;;7.00;6.35;;;;;;;;;;5021162;28;20113;-63
2022/10/12 04:43:53;;;;;;;6.90;6.40;;;;;;;;;;5018420;28;20463;-64
2022/10/12 04:46:19;;;;;;;6.78;6.18;;;;;;;;;;5017324;28;20455;-63
2022/10/12 04:48:44;;;;;;;6.75;6.13;;;;;;;;;;5022446;28;20056;-63
2022/10/12 04:51:10;;;;;;;7.22;6.72;;;;;;;;;;5026127;28;20420;-63
2022/10/12 04:53:35;;;;;;;6.60;6.10;;;;;;;;;;5020172;28;20025;-63
2022/10/12 04:56:02;;;;;;;6.43;5.93;;;;;;;;;;5020515;28;20033;-63
2022/10/12 04:58:28;;;;;;;8.25;7.63;;;;;;;;;;5020568;28;20555;-62
2022/10/12 05:00:53;;;;;;;7.03;6.53;;;;;;;;;;5015080;28;20120;-63
2022/10/12 05:03:19;;;;;;;7.35;6.72;;;;;;;;;;5017834;28;20072;-63
2022/10/12 05:05:44;;;;;;;9.30;8.55;;;;;;;;;;5014389;28;20026;-63
2022/10/12 05:08:11;;;;;;;6.68;6.03;;;;;;;;;;5018008;28;20395;-63
2022/10/12 05:10:37;;;;;;;8.35;7.55;;;;;;;;;;5015641;28;20029;-63
2022/10/12 05:13:03;;;;;;;7.07;6.47;;;;;;;;;;5017774;28;20623;-63
2022/10/12 05:15:28;;;;;;;7.15;6.57;;;;;;;;;;5014730;28;20042;-63
2022/10/12 05:17:53;;;;;;;7.38;6.80;;;;;;;;;;5019309;28;20076;-61
2022/10/12 05:20:19;;;;;;;7.22;6.72;;;;;;;;;;5018479;28;20116;-62
2022/10/12 05:22:44;;;;;;;6.22;5.82;;;;;;;;;;5017359;28;20033;-65
2022/10/12 05:25:10;;;;;;;6.15;5.75;;;;;;;;;;5018147;28;20052;-64
2022/10/12 05:27:35;;;;;;;6.07;5.68;;;;;;;;;;5022760;28;20276;-63
2022/10/12 05:30:00;;;;;;;6.90;6.40;;;;;;;;;;5019329;28;20064;-63
2022/10/12 05:32:26;;;;;;;7.55;7.05;;;;;;;;;;5018053;28;20092;-63
2022/10/12 05:34:51;;;;;;;6.85;6.35;;;;;;;;;;5018034;28;20034;-64
2022/10/12 05:37:16;;;;;;;7.80;7.20;;;;;;;;;;5018833;28;20033;-63
2022/10/12 05:39:42;;;;;;;6.60;6.15;;;;;;;;;;5018241;28;20125;-65
2022/10/12 05:42:07;;;;;;;6.82;6.32;;;;;;;;;;5019601;28;20029;-63
2022/10/12 05:44:33;;;;;;;7.03;6.53;;;;;;;;;;5017864;28;20034;-64
2022/10/12 05:46:58;;;;;;;6.45;6.00;;;;;;;;;;5020610;28;20029;-61
2022/10/12 05:49:24;;;;;;;7.43;6.72;;;;;;;;;;5019769;28;20055;-62
2022/10/12 05:51:49;;;;;;;7.43;6.88;;;;;;;;;;5017537;28;20595;-61
2022/10/12 05:54:15;;;;;;;7.00;6.50;;;;;;;;;;5018524;28;20525;-62
2022/10/12 05:56:40;;;;;;;7.75;7.10;;;;;;;;;;5018870;28;20068;-61
2022/10/12 05:59:06;;;;;;;7.60;7.10;;;;;;;;;;5047177;28;20494;-62
2022/10/12 06:01:31;;;;;;;15.93;7.68;;;;;;;;;;5019366;28;20033;-63
2022/10/12 06:03:56;;;;;;;6.65;6.15;;;;;;;;;;5016416;28;20037;-64
2022/10/12 06:06:22;;;;;;;6.65;6.15;;;;;;;;;;5012986;28;20038;-64
2022/10/12 06:08:47;;;;;;;6.60;6.00;;;;;;;;;;5015967;28;20048;-62
2022/10/12 06:11:13;;;;;;;6.82;6.32;;;;;;;;;;5025064;28;20065;-64
2022/10/12 06:13:38;;;;;;;6.53;6.03;;;;;;;;;;5018740;28;20044;-63
2022/10/12 06:16:04;;;;;;;7.47;6.90;;;;;;;;;;5016915;28;20030;-64
2022/10/12 06:18:30;;;;;;;6.57;6.10;;;;;;;;;;5018383;28;20170;-62
2022/10/12 06:20:55;;;;;;;7.03;6.53;;;;;;;;;;5021111;28;20029;-63
2022/10/12 06:23:21;;;;;;;7.18;6.68;;;;;;;;;;5020163;28;20071;-64
2022/10/12 06:25:47;;;;;;;7.03;6.53;;;;;;;;;;5019856;28;20022;-64
2022/10/12 06:28:14;;;;;;;6.80;6.30;;;;;;;;;;5016696;28;20053;-63
2022/10/12 06:30:40;;;;;;;6.25;5.85;;;;;;;;;;5016574;28;20041;-63
2022/10/12 06:33:05;;;;;;;6.18;5.68;;;;;;;;;;5019419;28;20574;-65
2022/10/12 06:35:31;;;;;;;6.68;6.18;;;;;;;;;;5051832;28;20370;-65
2022/10/12 06:37:56;;;;;;;6.78;6.18;;;;;;;;;;5017621;28;20064;-65
2022/10/12 06:40:22;;;;;;;6.25;5.85;;;;;;;;;;5014298;28;20044;-64
2022/10/12 06:42:48;;;;;;;7.00;6.35;;;;;;;;;;5016672;28;20116;-66
2022/10/12 06:45:14;;;;;;;6.88;6.38;;;;;;;;;;5018305;28;20025;-65
2022/10/12 06:47:40;;;;;;;6.63;6.13;;;;;;;;;;5020365;28;20034;-66
2022/10/12 06:50:06;;;;;;;6.15;5.75;;;;;;;;;;5019130;28;20037;-63
2022/10/12 06:52:32;;;;;;;6.03;5.63;;;;;;;;;;5017044;28;20037;-63
2022/10/12 06:54:57;;;;;;;6.97;6.47;;;;;;;;;;5015768;28;20497;-63
2022/10/12 06:57:23;;;;;;;7.00;6.50;;;;;;;;;;5019163;28;20037;-63
2022/10/12 06:59:48;;;;;;;11.68;6.82;;;;;;;;;;5016656;28;20060;-63
2022/10/12 07:02:13;;;;;;;5.72;5.32;;;;;;;;;;5014494;28;20049;-63
2022/10/12 07:04:39;;;;;;;7.38;6.85;;;;;;;;;;5033375;28;20044;-63
2022/10/12 07:07:04;;;;;;;7.15;6.53;;;;;;;;;;5012206;28;20411;-63
2022/10/12 07:09:30;;;;;;;6.32;5.88;;;;;;;;;;5018024;28;20168;-63
2022/10/12 07:11:55;;;;;;;6.55;6.05;;;;;;;;;;5017591;28;20038;-64
2022/10/12 07:14:21;;;;;;;7.25;6.47;;;;;;;;;;5019743;28;20044;-64
2022/10/12 07:16:46;;;;;;;7.03;6.53;;;;;;;;;;5018593;28;20044;-63
2022/10/12 07:19:12;;;;;;;6.10;5.68;;;;;;;;;;5016626;28;20030;-64
2022/10/12 07:21:37;;;;;;;6.43;5.93;;;;;;;;;;5022682;28;20037;-63
2022/10/12 07:24:03;;;;;;;7.25;6.75;;;;;;;;;;5015188;28;20041;-67
2022/10/12 07:26:28;;;;;;;6.70;6.15;;;;;;;;;;5016312;28;20036;-67
2022/10/12 07:28:54;;;;;;;7.03;6.53;;;;;;;;;;5047212;28;20452;-66
2022/10/12 07:31:19;;;;;;;6.38;5.88;;;;;;;;;;5015801;28;20038;-66
2022/10/12 07:33:45;;;;;;;6.70;6.20;;;;;;;;;;5017737;28;20113;-66
2022/10/12 07:36:10;;;;;;;6.65;6.15;;;;;;;;;;5018693;28;20037;-66
2022/10/12 07:38:35;;;;;;;6.35;5.95;;;;;;;;;;5019775;28;20601;-66
2022/10/12 07:41:02;;;;;;;8.27;7.53;;;;;;;;;;5017596;28;20037;-66
2022/10/12 07:43:29;;;;;;;6.70;6.20;;;;;;;;;;5020786;28;20037;-66
2022/10/12 07:45:55;;;;;;;8.13;7.53;;;;;;;;;;5021514;28;20507;-66
2022/10/12 07:48:21;;;;;;;7.63;6.85;;;;;;;;;;5021746;28;20033;-61
2022/10/12 07:50:47;;;;;;;7.93;7.38;;;;;;;;;;5026660;28;20036;-63
2022/10/12 07:53:12;;;;;;;8.13;7.57;;;;;;;;;;5019357;28;20041;-63
2022/10/12 07:55:38;;;;;;;7.90;7.40;;;;;;;;;;5018898;28;20121;-64
2022/10/12 07:58:03;;;;;;;8.07;7.57;;;;;;;;;;5017915;28;20029;-62
2022/10/12 08:00:31;;;;;;;7.63;7.03;;;;;;;;;;5049054;28;20091;-62
2022/10/12 08:02:57;;;;;;;7.30;6.80;;;;;;;;;;5023780;28;20372;-62
2022/10/12 08:05:23;;;;;;;7.07;6.57;;;;;;;;;;5022134;28;20048;-63
2022/10/12 08:07:50;;;;;;;7.82;6.80;;;;;;;;;;5018892;28;20109;-64
2022/10/12 08:10:16;;;;;;;8.05;7.45;;;;;;;;;;5016487;28;20061;-63
2022/10/12 08:12:42;;;;;;;9.70;6.63;;;;;;;;;;5019521;28;20049;-62
2022/10/12 08:15:08;;;;;;;7.30;6.80;;;;;;;;;;5017444;28;20057;-64
2022/10/12 08:17:33;;;;;;;6.78;6.28;;;;;;;;;;5020443;28;20034;-64
2022/10/12 08:19:59;;;;;;;7.03;6.53;;;;;;;;;;5019829;28;20037;-62
2022/10/12 08:22:24;;;;;;;7.50;7.00;;;;;;;;;;5020329;28;20532;-64
2022/10/12 08:24:49;;;;;;;7.10;6.60;;;;;;;;;;5016484;28;20021;-64
2022/10/12 08:27:15;;;;;;;7.63;7.05;;;;;;;;;;5017985;28;20049;-64
2022/10/12 08:29:40;;;;;;;8.30;7.63;;;;;;;;;;5017966;28;20195;-63
2022/10/12 08:32:05;;;;;;;7.38;6.88;;;;;;;;;;5015278;28;20026;-62
2022/10/12 08:34:31;;;;;;;8.57;7.97;;;;;;;;;;5021310;28;20025;-65
2022/10/12 08:36:58;;;;;;;8.68;7.88;;;;;;;;;;5016443;28;20030;-64
2022/10/12 08:39:24;;;;;;;8.05;7.38;;;;;;;;;;5020279;28;20103;-64
2022/10/12 08:42:15;;;;;;;9.07;8.45;;;;;;;;;;5017005;28;20033;-64
2022/10/12 08:44:41;;;;;;;8.18;7.65;;;;;;;;;;5019137;28;20099;-64
2022/10/12 08:47:18;;;;;;;8.35;7.75;;;;;;;;;;5021301;28;20034;-64
2022/10/12 08:49:44;;;;;;;7.03;6.53;;;;;;;;;;5017726;28;20065;-64
2022/10/12 08:52:33;;;;;;;7.07;6.57;;;;;;;;;;5016910;28;20030;-63
2022/10/12 08:55:05;;;;;;;7.20;6.70;;;;;;;;;;5034736;28;20490;-63
2022/10/12 08:57:31;;;;;;;6.55;6.05;;;;;;;;;;5015916;28;20025;-64
2022/10/12 08:59:58;;;;;;;6.75;6.25;;;;;;;;;;5017796;28;20098;-63
2022/10/12 09:02:35;;;;;;;6.88;6.30;;;;;;;;;;5021365;28;20041;-63
2022/10/12 09:05:32;;;;;;;7.53;6.93;;;;;;;;;;5018468;28;20053;-63
2022/10/12 09:08:15;;;;;;;7.32;6.78;;;;;;;;;;5008633;28;20041;-66
2022/10/12 09:10:46;;;;;;;6.75;6.25;;;;;;;;;;5019254;28;20033;-65
2022/10/12 09:13:30;;;;;;;6.40;6.00;;;;;;;;;;5017844;28;20033;-66
2022/10/12 09:16:00;;;;;;;6.20;5.70;;;;;;;;;;5016205;28;20029;-63
2022/10/12 09:18:36;;;;;;;7.18;6.68;;;;;;;;;;5020401;28;20481;-63
2022/10/12 09:21:05;;;;;;;6.22;5.75;;;;;;;;;;5016343;28;20038;-63
2022/10/12 09:23:37;;;;;;;6.72;6.22;;;;;;;;;;5016737;28;20470;-64
2022/10/12 09:26:34;;;;;;;7.78;7.07;;;;;;;;;;5016196;28;20039;-63
2022/10/12 09:29:01;;;;;;;6.93;6.35;;;;;;;;;;5010564;28;20044;-63
2022/10/12 09:31:48;;;;;;;7.90;7.38;;;;;;;;;;5015665;28;20029;-64
2022/10/12 09:34:13;;;;;;;7.75;7.15;;;;;;;;;;5016752;28;20745;-63
2022/10/12 09:36:40;;;;;;;8.32;7.65;;;;;;;;;;5015541;28;20033;-63
2022/10/12 09:39:14;;;;;;;6.75;6.25;;;;;;;;;;5015808;28;20064;-63
2022/10/12 09:41:42;;;;;;;7.90;7.30;;;;;;;;;;5016319;28;20105;-63
2022/10/12 09:44:15;;;;;;;7.05;6.50;;;;;;;;;;5020409;28;20117;-63
2022/10/12 09:46:46;;;;;;;8.07;7.45;;;;;;;;;;5017428;28;20049;-63
2022/10/12 09:49:12;;;;;;;7.32;6.82;;;;;;;;;;5017397;28;20156;-63
2022/10/12 09:51:38;;;;;;;7.40;6.80;;;;;;;;;;5017845;28;21063;-63
2022/10/12 09:54:04;;;;;;;6.65;6.15;;;;;;;;;;5016021;28;20045;-63
2022/10/12 09:56:45;;;;;;;7.20;6.70;;;;;;;;;;5017721;28;20116;-63
2022/10/12 09:59:23;;;;;;;;;;;;;;;;;;5033288;28;20044;-63
2022/10/12 10:02:08;;;;;;;9.00;8.40;;;;;;;;;;5015622;28;20386;-63
2022/10/12 10:04:34;;;;;;;7.22;6.72;;;;;;;;;;5017043;28;20033;-63
2022/10/12 10:07:17;;;;;;;8.10;7.55;;;;;;;;;;5015278;28;20101;-63
2022/10/12 10:09:43;;;;;;;8.35;7.75;;;;;;;;;;5015159;28;20030;-63
2022/10/12 10:12:22;;;;;;;9.23;8.52;;;;;;;;;;5015381;28;20057;-62
2022/10/12 10:14:49;;;;;;;9.65;9.05;;;;;;;;;;5013654;28;20041;-64
2022/10/12 10:17:21;;;;;;;11.90;11.20;;;;;;;;;;5017385;28;20057;-64
2022/10/12 10:19:52;;;;;;;13.35;12.45;;;;;;;;;;5016430;28;20032;-63
2022/10/12 10:22:19;;;;;;;11.93;11.23;;;;;;;;;;5014754;28;20113;-63
2022/10/12 10:24:50;;;;;;;11.93;11.13;;;;;;;;;;5017317;28;20037;-63
2022/10/12 10:27:36;;;;;;;12.40;11.65;;;;;;;;;;5014531;28;20512;-62
2022/10/12 10:30:14;;;;;;;13.02;12.20;;;;;;;;;;5017220;28;20033;-63
2022/10/12 10:32:39;;;;;;;12.00;11.30;;;;;;;;;;5019632;28;20025;-63
2022/10/12 10:35:17;;;;;;;12.32;11.60;;;;;;;;;;5017219;28;20033;-63
2022/10/12 10:37:46;;;;;;;12.52;11.73;;;;;;;;;;5015783;28;20033;-63
2022/10/12 10:40:22;;;;;;;11.70;11.00;;;;;;;;;;5044881;28;20030;-63
2022/10/12 10:42:50;;;;;;;12.00;11.23;;;;;;;;;;5017367;28;20073;-63
2022/10/12 10:45:25;;;;;;;13.68;12.80;;;;;;;;;;5016816;28;20029;-62
2022/10/12 10:47:59;;;;;;;15.02;14.13;;;;;;;;;;5015313;28;20021;-62
2022/10/12 10:50:31;;;;;;;15.55;14.57;;;;;;;;;;5017654;28;20479;-63
2022/10/12 10:52:59;;;;;;;15.10;14.23;;;;;;;;;;5018606;28;20098;-63
2022/10/12 10:55:41;;;;;;;18.55;17.35;;;;;;;;;;5018549;28;20091;-63
2022/10/12 10:58:17;;;;;;;16.70;15.70;;;;;;;;;;5030687;28;20053;-63
2022/10/12 11:00:45;;;;;;;16.00;15.05;;;;;;;;;;5016915;28;20025;-64
2022/10/12 11:03:19;;;;;;;16.08;14.95;;;;;;;;;;5014043;28;20498;-64
2022/10/12 11:05:51;;;;;;;15.43;14.50;;;;;;;;;;5013703;28;20030;-63
2022/10/12 11:08:24;;;;;;;16.50;15.40;;;;;;;;;;5018176;28;20091;-63
2022/10/12 11:10:57;;;;;;;15.27;14.38;;;;;;;;;;5015280;28;20104;-63
2022/10/12 11:13:37;;;;;;;16.33;15.23;;;;;;;;;;5015817;28;20040;-63
2022/10/12 11:16:13;;;;;;;14.67;13.77;;;;;;;;;;5013661;28;20108;-63
2022/10/12 11:18:45;;;;;;;16.25;14.90;;;;;;;;;;5047027;28;20279;-63
2022/10/12 11:21:25;;;;;;;16.33;15.40;;;;;;;;;;5019439;28;20356;-63
2022/10/12 11:23:58;;;;;;;17.13;16.13;;;;;;;;;;5015548;28;20045;-64
2022/10/12 11:26:27;;;;;;;15.13;14.23;;;;;;;;;;5016617;28;20030;-63
2022/10/12 11:28:55;;;;;;;15.80;14.90;;;;;;;;;;5016378;28;20045;-63
2022/10/12 11:31:38;;;;;;;16.08;15.13;;;;;;;;;;5012350;28;20080;-63
2022/10/12 11:34:07;;;;;;;15.45;14.55;;;;;;;;;;5014010;28;20041;-62
2022/10/12 11:36:38;;;;;;;15.85;14.95;;;;;;;;;;5013052;28;20034;-63
2022/10/12 11:39:18;;;;;;;17.88;16.77;;;;;;;;;;5015825;28;20038;-62
2022/10/12 11:41:52;;;;;;;15.95;15.05;;;;;;;;;;5021084;28;20118;-62
2022/10/12 11:44:36;;;;;;;17.73;16.73;;;;;;;;;;5019387;28;20738;-64
2022/10/12 11:47:06;;;;;;;15.63;14.70;;;;;;;;;;5021333;28;20041;-63
2022/10/12 11:49:50;;;;;;;14.27;13.48;;;;;;;;;;5018938;28;20033;-63
2022/10/12 11:52:16;;;;;;;14.60;13.73;;;;;;;;;;5021322;28;20029;-63
2022/10/12 11:54:45;;;;;;;13.93;13.02;;;;;;;;;;5022017;28;20025;-63
2022/10/12 11:57:16;;;;;;;12.98;12.23;;;;;;;;;;5022629;28;20042;-64
2022/10/12 11:59:55;;;;;;;12.82;12.02;;;;;;;;;;5018132;28;20076;-65
2022/10/12 12:02:30;;;;;;;13.55;12.75;;;;;;;;;;5020160;28;20038;-65
2022/10/12 12:04:55;;;;;;;14.32;13.43;;;;;;;;;;5019953;28;20115;-64
2022/10/12 12:07:42;;;;;;;13.60;12.70;;;;;;;;;;5020491;28;20657;-63
2022/10/12 12:10:36;;;;;;;15.27;13.68;;;;;;;;;;5019453;28;20414;-65
2022/10/12 12:13:20;;;;;;;14.35;13.32;;;;;;;;;;5018546;28;20034;-64
2022/10/12 12:15:45;;;;;;;13.55;12.55;;;;;;;;;;5020479;28;20360;-64
2022/10/12 12:18:18;;;;;;;12.70;11.80;;;;;;;;;;5019268;28;20044;-64
2022/10/12 12:20:43;;;;;;;13.15;12.25;;;;;;;;;;5019435;28;20033;-64
2022/10/12 12:23:20;;;;;;;12.60;11.85;;;;;;;;;;5023873;28;20045;-64
2022/10/12 12:25:46;;;;;;;13.77;12.98;;;;;;;;;;5021393;28;20053;-63
2022/10/12 12:28:23;;;;;;;14.23;13.25;;;;;;;;;;5023217;28;20171;-65
2022/10/12 12:31:05;;;;;;;14.55;13.57;;;;;;;;;;5016023;28;20200;-64
2022/10/12 12:33:34;;;;;;;14.00;13.10;;;;;;;;;;5019887;28;20063;-63
2022/10/12 12:36:06;;;;;;;17.33;12.05;;;;;;;;;;5018643;28;20053;-65
2022/10/12 12:38:33;;;;;;;16.63;15.52;;;;;;;;;;5022648;28;20033;-64
2022/10/12 12:41:00;;;;;;;16.70;15.52;;;;;;;;;;5018599;28;20539;-64
2022/10/12 12:43:28;;;;;;;14.85;13.95;;;;;;;;;;5019808;28;20029;-64
2022/10/12 12:45:59;;;;;;;14.60;13.70;;;;;;;;;;5016069;28;20079;-64
2022/10/12 12:48:43;;;;;;;15.48;14.57;;;;;;;;;;5017978;28;20506;-64
2022/10/12 12:51:13;;;;;;;14.43;13.57;;;;;;;;;;5013572;28;20095;-64
2022/10/12 12:53:44;;;;;;;13.20;12.27;;;;;;;;;;5021386;28;20034;-64
2022/10/12 12:56:31;;;;;;;13.02;12.23;;;;;;;;;;5017628;28;20079;-64
2022/10/12 12:59:40;;;;;;;14.02;13.15;;;;;;;;;;5018990;28;20038;-64
2022/10/12 13:02:37;;;;;;;12.73;11.93;;;;;;;;;;5015426;28;20379;-64
2022/10/12 13:05:24;;;;;;;14.05;12.90;;;;;;;;;;5017109;28;20049;-64
2022/10/12 13:08:05;;;;;;;13.48;12.68;;;;;;;;;;5017581;28;20107;-64
2022/10/12 13:10:33;;;;;;;;;;;;;;;;;;5017679;28;20026;-63
2022/10/12 13:13:16;;;;;;;12.65;11.85;;;;;;;;;;5016533;28;19913;-63
2022/10/12 13:15:57;;;;;;;12.45;11.65;;;;;;;;;;5017322;28;20037;-63
2022/10/12 13:18:42;;;;;;;11.45;10.75;;;;;;;;;;5017578;28;20109;-63
2022/10/12 13:21:14;;;;;;;11.45;10.75;;;;;;;;;;5013980;28;20128;-63
2022/10/12 13:23:42;;;;;;;11.95;11.25;;;;;;;;;;5023978;28;20034;-63
2022/10/12 13:26:09;;;;;;;12.02;11.23;;;;;;;;;;5016689;28;20463;-63
2022/10/12 13:28:39;;;;;;;11.57;10.88;;;;;;;;;;5016941;28;20025;-63
2022/10/12 13:31:16;;;;;;;13.25;12.35;;;;;;;;;;5037216;28;20439;-63
2022/10/12 13:33:58;;;;;;;11.73;10.93;;;;;;;;;;5017255;28;20029;-63
2022/10/12 13:36:25;;;;;;;12.55;11.75;;;;;;;;;;5016627;28;20218;-63
2022/10/12 13:38:58;;;;;;;11.85;11.05;;;;;;;;;;5018595;28;20578;-63
2022/10/12 13:41:29;;;;;;;12.45;11.68;;;;;;;;;;5015195;28;20579;-63
2022/10/12 13:44:03;;;;;;;12.95;12.15;;;;;;;;;;5017734;28;20033;-63
2022/10/12 13:46:45;;;;;;;13.02;12.13;;;;;;;;;;5017085;28;20037;-63
2022/10/12 13:49:27;;;;;;;12.55;11.75;;;;;;;;;;5019289;28;20626;-63
2022/10/12 13:52:14;;;;;;;13.32;12.43;;;;;;;;;;5015325;28;20022;-63
2022/10/12 13:54:42;;;;;;;12.25;11.45;;;;;;;;;;5016362;28;20041;-63
2022/10/12 13:57:30;;;;;;;12.13;11.32;;;;;;;;;;5015559;28;20034;-63
2022/10/12 14:00:14;;;;;;;13.82;12.93;;;;;;;;;;5018179;28;20021;-63
2022/10/12 14:02:40;;;;;;;12.27;11.43;;;;;;;;;;5015445;28;20482;-63
2022/10/12 14:05:15;;;;;;;13.70;12.80;;;;;;;;;;5016977;28;20037;-63
2022/10/12 14:07:43;;;;;;;11.75;11.05;;;;;;;;;;5014585;28;20036;-63
2022/10/12 14:10:36;;;;;;;13.23;12.35;;;;;;;;;;5015574;28;20099;-62
2022/10/12 14:13:03;;;;;;;12.02;11.23;;;;;;;;;;5015090;28;20113;-62
2022/10/12 14:15:33;;;;;;;12.30;11.50;;;;;;;;;;5015020;28;20463;-62
2022/10/12 14:17:58;;;;;;;12.25;11.45;;;;;;;;;;5015412;28;20359;-63
2022/10/12 14:20:29;;;;;;;14.45;13.13;;;;;;;;;;5019979;28;20044;-63
2022/10/12 14:22:57;;;;;;;14.85;12.85;;;;;;;;;;5016033;28;20022;-63
2022/10/12 14:25:25;;;;;;;12.43;11.70;;;;;;;;;;5017299;28;20061;-63
2022/10/12 14:28:04;;;;;;;14.13;13.15;;;;;;;;;;4998794;28;20057;-63
2022/10/12 14:30:48;;;;;;;12.52;11.63;;;;;;;;;;5017776;28;20044;-63
2022/10/12 14:33:13;;;;;;;13.98;12.70;;;;;;;;;;5014950;28;20029;-64
2022/10/12 14:35:42;;;;;;;14.23;13.32;;;;;;;;;;5018148;28;20036;-63
2022/10/12 14:38:45;;;;;;;16.85;13.35;;;;;;;;;;5017731;28;20036;-63
2022/10/12 14:41:35;;;;;;;12.73;11.93;;;;;;;;;;5018417;28;20025;-63
2022/10/12 14:44:18;;;;;;;14.05;13.23;;;;;;;;;;5015612;28;20061;-63
2022/10/12 14:46:53;;;;;;;13.48;12.63;;;;;;;;;;5018143;28;20116;-62
2022/10/12 14:49:21;;;;;;;15.90;14.20;;;;;;;;;;5017253;28;20076;-63
2022/10/12 14:51:49;;;;;;;15.32;13.98;;;;;;;;;;5012410;28;20372;-63
2022/10/12 14:54:14;;;;;;;15.90;14.80;;;;;;;;;;5015290;28;20047;-63
2022/10/12 14:56:40;;;;;;;16.08;14.98;;;;;;;;;;5014829;28;20564;-64